Terminal Aerodrome Forecast
Issued by NWS New Orleans/Baton Rouge, LA

Home | Current Version | Previous Version | Text Only | Print | Product List | Glossary On
Versions: 1 2 3 4 5 6 7 8 9 10 11 12 13 14 15 16
054
FTUS44 KLIX 250530
TAFBTR
TAF
KBTR 250530Z 2506/2606 19009KT P6SM VCSH BKN018
     FM250900 20008KT 4SM SHRA BKN010
     FM251100 28006KT 3SM SHRA OVC010
     FM251400 01005KT 6SM -SHRA BKN018 OVC050
     FM260000 09006KT 4SM -SHRA BKN010=

USA.gov is the U.S. government's official web portal to all federal, state and local government web resources and services.